sensor_id;sensor_type;location;lat;lon;timestamp;temperature;humidity
20915;DHT22;10617;52.032;5.298;2023-04-15T00:13:59;9.90;88.50
20915;DHT22;10617;52.032;5.298;2023-04-15T00:18:01;9.90;88.80
20915;DHT22;10617;52.032;5.298;2023-04-15T00:22:02;9.90;87.60
20915;DHT22;10617;52.032;5.298;2023-04-15T00:26:04;9.90;88.40
20915;DHT22;10617;52.032;5.298;2023-04-15T00:30:06;9.80;87.30
20915;DHT22;10617;52.032;5.298;2023-04-15T00:34:07;9.70;87.30
20915;DHT22;10617;52.032;5.298;2023-04-15T00:38:09;9.60;88.30
20915;DHT22;10617;52.032;5.298;2023-04-15T00:42:12;9.50;87.40
20915;DHT22;10617;52.032;5.298;2023-04-15T00:46:13;9.50;87.60
20915;DHT22;10617;52.032;5.298;2023-04-15T00:50:16;9.40;89.60
20915;DHT22;10617;52.032;5.298;2023-04-15T00:54:17;9.30;90.10
20915;DHT22;10617;52.032;5.298;2023-04-15T00:58:19;9.20;90.30
20915;DHT22;10617;52.032;5.298;2023-04-15T01:02:21;9.10;88.80
20915;DHT22;10617;52.032;5.298;2023-04-15T01:06:23;9.10;89.70
20915;DHT22;10617;52.032;5.298;2023-04-15T01:10:24;9.00;87.50
20915;DHT22;10617;52.032;5.298;2023-04-15T01:14:26;9.00;89.50
20915;DHT22;10617;52.032;5.298;2023-04-15T01:18:28;8.90;90.50
20915;DHT22;10617;52.032;5.298;2023-04-15T01:22:30;8.90;91.40
20915;DHT22;10617;52.032;5.298;2023-04-15T01:26:33;8.80;90.10
20915;DHT22;10617;52.032;5.298;2023-04-15T01:30:35;8.80;90.30
20915;DHT22;10617;52.032;5.298;2023-04-15T01:34:37;8.80;90.00
20915;DHT22;10617;52.032;5.298;2023-04-15T01:38:38;8.70;89.40
20915;DHT22;10617;52.032;5.298;2023-04-15T01:42:40;8.70;91.20
20915;DHT22;10617;52.032;5.298;2023-04-15T01:46:42;8.70;90.60
20915;DHT22;10617;52.032;5.298;2023-04-15T01:50:43;8.60;91.40
20915;DHT22;10617;52.032;5.298;2023-04-15T01:54:45;8.60;91.60
20915;DHT22;10617;52.032;5.298;2023-04-15T01:58:47;8.60;92.90
20915;DHT22;10617;52.032;5.298;2023-04-15T02:02:48;8.60;92.50
20915;DHT22;10617;52.032;5.298;2023-04-15T02:06:50;8.60;92.50
20915;DHT22;10617;52.032;5.298;2023-04-15T02:10:52;8.60;93.50
20915;DHT22;10617;52.032;5.298;2023-04-15T02:14:53;8.50;92.50
20915;DHT22;10617;52.032;5.298;2023-04-15T02:18:56;8.50;90.80
20915;DHT22;10617;52.032;5.298;2023-04-15T02:22:57;8.40;92.30
20915;DHT22;10617;52.032;5.298;2023-04-15T02:26:59;8.40;92.70
20915;DHT22;10617;52.032;5.298;2023-04-15T02:31:05;8.40;92.70
20915;DHT22;10617;52.032;5.298;2023-04-15T02:35:07;8.40;93.30
20915;DHT22;10617;52.032;5.298;2023-04-15T02:39:09;8.30;92.70
20915;DHT22;10617;52.032;5.298;2023-04-15T02:43:11;8.30;91.60
20915;DHT22;10617;52.032;5.298;2023-04-15T02:47:13;8.30;91.10
20915;DHT22;10617;52.032;5.298;2023-04-15T02:51:17;8.20;91.50
20915;DHT22;10617;52.032;5.298;2023-04-15T02:55:20;8.10;94.30
20915;DHT22;10617;52.032;5.298;2023-04-15T02:59:22;8.00;93.30
20915;DHT22;10617;52.032;5.298;2023-04-15T03:03:24;8.00;93.30
20915;DHT22;10617;52.032;5.298;2023-04-15T03:07:27;8.00;91.70
20915;DHT22;10617;52.032;5.298;2023-04-15T03:11:28;8.00;91.50
20915;DHT22;10617;52.032;5.298;2023-04-15T03:15:31;8.00;91.10
20915;DHT22;10617;52.032;5.298;2023-04-15T03:19:33;7.90;91.20
20915;DHT22;10617;52.032;5.298;2023-04-15T03:23:35;7.80;91.20
20915;DHT22;10617;52.032;5.298;2023-04-15T03:27:36;7.80;91.50
20915;DHT22;10617;52.032;5.298;2023-04-15T03:31:38;7.70;91.20
20915;DHT22;10617;52.032;5.298;2023-04-15T03:35:40;7.70;91.90
20915;DHT22;10617;52.032;5.298;2023-04-15T03:39:42;7.60;91.00
20915;DHT22;10617;52.032;5.298;2023-04-15T03:43:43;7.60;91.20
20915;DHT22;10617;52.032;5.298;2023-04-15T03:47:45;7.60;90.90
20915;DHT22;10617;52.032;5.298;2023-04-15T03:51:47;7.50;92.80
20915;DHT22;10617;52.032;5.298;2023-04-15T03:55:48;7.50;91.40
20915;DHT22;10617;52.032;5.298;2023-04-15T03:59:50;7.50;92.20
20915;DHT22;10617;52.032;5.298;2023-04-15T04:03:52;7.50;93.20
20915;DHT22;10617;52.032;5.298;2023-04-15T04:07:53;7.40;93.10
20915;DHT22;10617;52.032;5.298;2023-04-15T04:11:55;7.40;91.70
20915;DHT22;10617;52.032;5.298;2023-04-15T04:15:57;7.40;92.80
20915;DHT22;10617;52.032;5.298;2023-04-15T04:19:58;7.30;92.90
20915;DHT22;10617;52.032;5.298;2023-04-15T04:24:00;7.30;93.30
20915;DHT22;10617;52.032;5.298;2023-04-15T04:28:02;7.20;94.30
20915;DHT22;10617;52.032;5.298;2023-04-15T04:32:03;7.20;93.20
20915;DHT22;10617;52.032;5.298;2023-04-15T04:36:05;7.20;94.80
20915;DHT22;10617;52.032;5.298;2023-04-15T04:40:07;7.10;94.10
20915;DHT22;10617;52.032;5.298;2023-04-15T04:44:09;7.10;95.00
20915;DHT22;10617;52.032;5.298;2023-04-15T04:48:11;7.10;94.90
20915;DHT22;10617;52.032;5.298;2023-04-15T04:52:13;7.10;94.10
20915;DHT22;10617;52.032;5.298;2023-04-15T04:56:14;7.10;95.60
20915;DHT22;10617;52.032;5.298;2023-04-15T05:00:16;7.10;94.50
20915;DHT22;10617;52.032;5.298;2023-04-15T05:04:18;7.10;94.60
20915;DHT22;10617;52.032;5.298;2023-04-15T05:08:22;7.10;95.40
20915;DHT22;10617;52.032;5.298;2023-04-15T05:12:24;7.10;94.50
20915;DHT22;10617;52.032;5.298;2023-04-15T05:16:26;7.10;93.40
20915;DHT22;10617;52.032;5.298;2023-04-15T05:20:28;7.10;92.80
20915;DHT22;10617;52.032;5.298;2023-04-15T05:24:29;7.20;93.70
20915;DHT22;10617;52.032;5.298;2023-04-15T05:28:31;7.20;93.40
20915;DHT22;10617;52.032;5.298;2023-04-15T05:32:33;7.30;94.40
20915;DHT22;10617;52.032;5.298;2023-04-15T05:36:34;7.30;93.60
20915;DHT22;10617;52.032;5.298;2023-04-15T05:40:36;7.30;93.10
20915;DHT22;10617;52.032;5.298;2023-04-15T05:44:38;7.30;92.80
20915;DHT22;10617;52.032;5.298;2023-04-15T05:48:39;7.30;92.80
20915;DHT22;10617;52.032;5.298;2023-04-15T05:52:42;7.30;92.60
20915;DHT22;10617;52.032;5.298;2023-04-15T05:56:43;7.20;93.80
20915;DHT22;10617;52.032;5.298;2023-04-15T06:10:27;7.20;94.90
20915;DHT22;10617;52.032;5.298;2023-04-15T06:14:29;7.20;93.60
20915;DHT22;10617;52.032;5.298;2023-04-15T06:18:31;7.30;93.30
20915;DHT22;10617;52.032;5.298;2023-04-15T06:22:32;7.30;95.30
20915;DHT22;10617;52.032;5.298;2023-04-15T06:26:34;7.30;94.60
20915;DHT22;10617;52.032;5.298;2023-04-15T06:30:36;7.40;94.70
20915;DHT22;10617;52.032;5.298;2023-04-15T06:34:38;7.60;95.70
20915;DHT22;10617;52.032;5.298;2023-04-15T06:48:46;8.10;95.30
20915;DHT22;10617;52.032;5.298;2023-04-15T06:52:48;8.40;95.90
20915;DHT22;10617;52.032;5.298;2023-04-15T06:56:50;8.60;95.80
20915;DHT22;10617;52.032;5.298;2023-04-15T07:00:52;8.80;95.90
20915;DHT22;10617;52.032;5.298;2023-04-15T07:04:54;9.00;95.60
20915;DHT22;10617;52.032;5.298;2023-04-15T07:08:57;9.10;95.40
20915;DHT22;10617;52.032;5.298;2023-04-15T07:12:58;9.20;95.30
20915;DHT22;10617;52.032;5.298;2023-04-15T07:17:00;9.20;97.20
20915;DHT22;10617;52.032;5.298;2023-04-15T07:21:02;9.30;96.60
20915;DHT22;10617;52.032;5.298;2023-04-15T07:25:04;9.40;97.90
20915;DHT22;10617;52.032;5.298;2023-04-15T07:29:06;9.60;98.60
20915;DHT22;10617;52.032;5.298;2023-04-15T07:33:07;9.80;98.20
20915;DHT22;10617;52.032;5.298;2023-04-15T07:37:09;10.10;98.70
20915;DHT22;10617;52.032;5.298;2023-04-15T07:41:10;10.30;98.60
20915;DHT22;10617;52.032;5.298;2023-04-15T07:45:12;10.60;99.90
20915;DHT22;10617;52.032;5.298;2023-04-15T07:49:14;10.80;99.60
20915;DHT22;10617;52.032;5.298;2023-04-15T07:53:16;11.10;99.90
20915;DHT22;10617;52.032;5.298;2023-04-15T07:57:17;11.30;99.10
20915;DHT22;10617;52.032;5.298;2023-04-15T08:01:19;11.50;99.60
20915;DHT22;10617;52.032;5.298;2023-04-15T08:05:21;11.60;98.30
20915;DHT22;10617;52.032;5.298;2023-04-15T08:09:23;11.80;99.90
20915;DHT22;10617;52.032;5.298;2023-04-15T08:13:24;12.00;99.70
20915;DHT22;10617;52.032;5.298;2023-04-15T08:17:26;12.10;99.90
20915;DHT22;10617;52.032;5.298;2023-04-15T08:21:28;12.40;99.10
20915;DHT22;10617;52.032;5.298;2023-04-15T08:25:31;12.50;98.40
20915;DHT22;10617;52.032;5.298;2023-04-15T08:29:33;12.70;98.90
20915;DHT22;10617;52.032;5.298;2023-04-15T08:33:34;12.80;98.10
20915;DHT22;10617;52.032;5.298;2023-04-15T08:37:36;12.90;99.40
20915;DHT22;10617;52.032;5.298;2023-04-15T08:41:44;13.00;97.90
20915;DHT22;10617;52.032;5.298;2023-04-15T08:45:48;13.20;99.00
20915;DHT22;10617;52.032;5.298;2023-04-15T08:49:52;13.40;98.90
20915;DHT22;10617;52.032;5.298;2023-04-15T08:53:55;13.50;99.20
20915;DHT22;10617;52.032;5.298;2023-04-15T08:57:57;13.70;98.70
20915;DHT22;10617;52.032;5.298;2023-04-15T09:01:59;13.70;99.10
20915;DHT22;10617;52.032;5.298;2023-04-15T09:06:02;13.80;98.70
20915;DHT22;10617;52.032;5.298;2023-04-15T09:10:04;13.80;98.20
20915;DHT22;10617;52.032;5.298;2023-04-15T09:14:07;13.70;98.20
20915;DHT22;10617;52.032;5.298;2023-04-15T09:18:10;13.70;98.00
20915;DHT22;10617;52.032;5.298;2023-04-15T09:22:12;13.80;98.10
20915;DHT22;10617;52.032;5.298;2023-04-15T09:26:14;13.80;98.20
20915;DHT22;10617;52.032;5.298;2023-04-15T09:30:17;13.70;98.50
20915;DHT22;10617;52.032;5.298;2023-04-15T09:34:19;13.60;98.40
20915;DHT22;10617;52.032;5.298;2023-04-15T09:38:21;13.60;98.40
20915;DHT22;10617;52.032;5.298;2023-04-15T09:42:23;13.80;99.30
20915;DHT22;10617;52.032;5.298;2023-04-15T09:46:43;14.00;99.60
20915;DHT22;10617;52.032;5.298;2023-04-15T09:50:45;14.40;99.20
20915;DHT22;10617;52.032;5.298;2023-04-15T09:54:47;14.60;99.50
20915;DHT22;10617;52.032;5.298;2023-04-15T09:58:55;14.90;99.70
20915;DHT22;10617;52.032;5.298;2023-04-15T10:02:56;15.00;99.00
20915;DHT22;10617;52.032;5.298;2023-04-15T10:06:58;15.00;99.10
20915;DHT22;10617;52.032;5.298;2023-04-15T10:11:01;15.10;99.30
20915;DHT22;10617;52.032;5.298;2023-04-15T10:15:03;15.20;99.80
20915;DHT22;10617;52.032;5.298;2023-04-15T10:19:08;15.40;99.90
20915;DHT22;10617;52.032;5.298;2023-04-15T10:23:10;15.90;99.90
20915;DHT22;10617;52.032;5.298;2023-04-15T10:27:13;16.30;99.90
20915;DHT22;10617;52.032;5.298;2023-04-15T10:31:15;16.60;99.90
20915;DHT22;10617;52.032;5.298;2023-04-15T10:35:17;16.90;99.90
20915;DHT22;10617;52.032;5.298;2023-04-15T10:43:33;17.20;99.90
20915;DHT22;10617;52.032;5.298;2023-04-15T10:47:37;17.50;99.90
20915;DHT22;10617;52.032;5.298;2023-04-15T10:51:40;17.80;99.90
20915;DHT22;10617;52.032;5.298;2023-04-15T10:55:42;17.90;99.90
20915;DHT22;10617;52.032;5.298;2023-04-15T11:04:01;17.80;99.90
20915;DHT22;10617;52.032;5.298;2023-04-15T11:08:03;17.60;99.90
20915;DHT22;10617;52.032;5.298;2023-04-15T11:12:05;17.90;99.90
20915;DHT22;10617;52.032;5.298;2023-04-15T11:16:08;18.20;99.90
20915;DHT22;10617;52.032;5.298;2023-04-15T11:20:13;18.20;99.90
20915;DHT22;10617;52.032;5.298;2023-04-15T11:24:24;17.80;99.90
20915;DHT22;10617;52.032;5.298;2023-04-15T11:28:29;17.90;99.90
20915;DHT22;10617;52.032;5.298;2023-04-15T11:32:31;18.50;99.90
20915;DHT22;10617;52.032;5.298;2023-04-15T11:36:33;18.50;99.90
20915;DHT22;10617;52.032;5.298;2023-04-15T11:40:35;18.50;99.90
20915;DHT22;10617;52.032;5.298;2023-04-15T11:44:38;18.60;99.90
20915;DHT22;10617;52.032;5.298;2023-04-15T11:48:41;18.80;99.90
20915;DHT22;10617;52.032;5.298;2023-04-15T11:52:53;19.10;99.90
20915;DHT22;10617;52.032;5.298;2023-04-15T11:56:54;19.10;99.90
20915;DHT22;10617;52.032;5.298;2023-04-15T12:00:57;19.00;99.90
20915;DHT22;10617;52.032;5.298;2023-04-15T12:05:03;19.00;99.90
20915;DHT22;10617;52.032;5.298;2023-04-15T12:13:07;19.70;99.90
20915;DHT22;10617;52.032;5.298;2023-04-15T12:17:10;20.10;99.90
20915;DHT22;10617;52.032;5.298;2023-04-15T12:21:12;20.40;99.90
20915;DHT22;10617;52.032;5.298;2023-04-15T12:25:13;20.40;99.90
20915;DHT22;10617;52.032;5.298;2023-04-15T12:39:24;19.20;99.90
20915;DHT22;10617;52.032;5.298;2023-04-15T12:43:27;18.80;98.80
20915;DHT22;10617;52.032;5.298;2023-04-15T12:47:28;18.50;98.70
20915;DHT22;10617;52.032;5.298;2023-04-15T12:51:30;18.00;98.60
20915;DHT22;10617;52.032;5.298;2023-04-15T12:55:32;17.80;97.70
20915;DHT22;10617;52.032;5.298;2023-04-15T12:59:34;17.40;97.70
20915;DHT22;10617;52.032;5.298;2023-04-15T13:03:35;17.30;97.70
20915;DHT22;10617;52.032;5.298;2023-04-15T13:07:37;17.30;97.60
20915;DHT22;10617;52.032;5.298;2023-04-15T13:11:39;17.10;97.80
20915;DHT22;10617;52.032;5.298;2023-04-15T13:15:41;17.10;98.20
20915;DHT22;10617;52.032;5.298;2023-04-15T13:19:46;17.10;97.50
20915;DHT22;10617;52.032;5.298;2023-04-15T13:23:47;17.10;97.50
20915;DHT22;10617;52.032;5.298;2023-04-15T13:27:50;17.10;97.70
20915;DHT22;10617;52.032;5.298;2023-04-15T13:31:52;17.10;96.40
20915;DHT22;10617;52.032;5.298;2023-04-15T13:55:32;16.40;96.70
20915;DHT22;10617;52.032;5.298;2023-04-15T13:59:35;16.30;97.40
20915;DHT22;10617;52.032;5.298;2023-04-15T14:03:37;16.30;98.00
20915;DHT22;10617;52.032;5.298;2023-04-15T14:07:39;16.50;98.60
20915;DHT22;10617;52.032;5.298;2023-04-15T14:11:41;16.60;98.00
20915;DHT22;10617;52.032;5.298;2023-04-15T14:15:42;16.40;97.90
20915;DHT22;10617;52.032;5.298;2023-04-15T14:19:44;16.10;97.50
20915;DHT22;10617;52.032;5.298;2023-04-15T14:23:46;15.80;97.60
20915;DHT22;10617;52.032;5.298;2023-04-15T14:27:47;15.40;97.30
20915;DHT22;10617;52.032;5.298;2023-04-15T14:31:49;15.10;97.30
20915;DHT22;10617;52.032;5.298;2023-04-15T14:36:11;14.90;98.20
20915;DHT22;10617;52.032;5.298;2023-04-15T14:40:12;14.90;97.60
20915;DHT22;10617;52.032;5.298;2023-04-15T14:44:14;14.70;97.90
20915;DHT22;10617;52.032;5.298;2023-04-15T14:48:16;14.40;98.40
20915;DHT22;10617;52.032;5.298;2023-04-15T14:52:17;14.30;99.00
20915;DHT22;10617;52.032;5.298;2023-04-15T14:56:19;14.50;98.30
20915;DHT22;10617;52.032;5.298;2023-04-15T15:00:20;14.80;98.80
20915;DHT22;10617;52.032;5.298;2023-04-15T15:04:22;14.90;98.50
20915;DHT22;10617;52.032;5.298;2023-04-15T15:08:24;14.90;97.80
20915;DHT22;10617;52.032;5.298;2023-04-15T15:12:25;14.70;97.40
20915;DHT22;10617;52.032;5.298;2023-04-15T15:16:27;14.50;97.50
20915;DHT22;10617;52.032;5.298;2023-04-15T15:20:29;14.30;97.40
20915;DHT22;10617;52.032;5.298;2023-04-15T15:24:31;14.00;97.40
20915;DHT22;10617;52.032;5.298;2023-04-15T15:28:33;13.90;98.20
20915;DHT22;10617;52.032;5.298;2023-04-15T15:32:35;13.90;98.10
20915;DHT22;10617;52.032;5.298;2023-04-15T15:36:37;13.70;97.60
20915;DHT22;10617;52.032;5.298;2023-04-15T15:40:38;13.70;97.70
20915;DHT22;10617;52.032;5.298;2023-04-15T15:44:40;13.60;98.20
20915;DHT22;10617;52.032;5.298;2023-04-15T15:48:42;13.60;98.30
20915;DHT22;10617;52.032;5.298;2023-04-15T15:52:43;13.40;98.30
20915;DHT22;10617;52.032;5.298;2023-04-15T15:56:45;13.30;98.50
20915;DHT22;10617;52.032;5.298;2023-04-15T16:00:47;13.20;98.40
20915;DHT22;10617;52.032;5.298;2023-04-15T16:04:48;13.10;98.30
20915;DHT22;10617;52.032;5.298;2023-04-15T16:08:52;13.10;98.50
20915;DHT22;10617;52.032;5.298;2023-04-15T16:12:54;13.10;98.00
20915;DHT22;10617;52.032;5.298;2023-04-15T16:16:56;12.90;97.80
20915;DHT22;10617;52.032;5.298;2023-04-15T16:20:58;12.90;98.60
20915;DHT22;10617;52.032;5.298;2023-04-15T16:25:00;12.80;98.80
20915;DHT22;10617;52.032;5.298;2023-04-15T16:29:02;12.80;98.40
20915;DHT22;10617;52.032;5.298;2023-04-15T16:33:05;12.70;99.00
20915;DHT22;10617;52.032;5.298;2023-04-15T16:37:07;12.60;98.30
20915;DHT22;10617;52.032;5.298;2023-04-15T16:41:08;12.50;98.40
20915;DHT22;10617;52.032;5.298;2023-04-15T16:45:10;12.60;99.40
20915;DHT22;10617;52.032;5.298;2023-04-15T16:49:11;12.60;99.60
20915;DHT22;10617;52.032;5.298;2023-04-15T16:53:13;12.60;99.50
20915;DHT22;10617;52.032;5.298;2023-04-15T16:57:15;12.50;98.80
20915;DHT22;10617;52.032;5.298;2023-04-15T17:01:17;12.40;98.90
20915;DHT22;10617;52.032;5.298;2023-04-15T17:05:19;12.30;99.90
20915;DHT22;10617;52.032;5.298;2023-04-15T17:09:20;12.20;99.40
20915;DHT22;10617;52.032;5.298;2023-04-15T17:13:22;12.30;99.00
20915;DHT22;10617;52.032;5.298;2023-04-15T17:17:25;12.30;99.40
20915;DHT22;10617;52.032;5.298;2023-04-15T17:21:27;12.30;99.00
20915;DHT22;10617;52.032;5.298;2023-04-15T17:25:28;12.20;98.20
20915;DHT22;10617;52.032;5.298;2023-04-15T17:29:31;12.00;99.80
20915;DHT22;10617;52.032;5.298;2023-04-15T17:33:33;11.90;98.30
20915;DHT22;10617;52.032;5.298;2023-04-15T17:37:54;11.90;98.40
20915;DHT22;10617;52.032;5.298;2023-04-15T17:41:56;11.70;98.80
20915;DHT22;10617;52.032;5.298;2023-04-15T17:45:58;11.60;99.40
20915;DHT22;10617;52.032;5.298;2023-04-15T17:49:59;11.50;99.00
20915;DHT22;10617;52.032;5.298;2023-04-15T17:54:01;11.40;98.50
20915;DHT22;10617;52.032;5.298;2023-04-15T17:58:03;11.40;98.30
20915;DHT22;10617;52.032;5.298;2023-04-15T18:02:04;11.40;99.60
20915;DHT22;10617;52.032;5.298;2023-04-15T18:06:06;11.30;99.00
20915;DHT22;10617;52.032;5.298;2023-04-15T18:10:08;11.20;99.80
20915;DHT22;10617;52.032;5.298;2023-04-15T18:14:10;11.10;99.80
20915;DHT22;10617;52.032;5.298;2023-04-15T18:18:12;11.10;98.90
20915;DHT22;10617;52.032;5.298;2023-04-15T18:22:14;11.00;98.50
20915;DHT22;10617;52.032;5.298;2023-04-15T18:26:16;10.90;99.90
20915;DHT22;10617;52.032;5.298;2023-04-15T18:30:17;10.70;98.60
20915;DHT22;10617;52.032;5.298;2023-04-15T18:34:19;10.70;99.80
20915;DHT22;10617;52.032;5.298;2023-04-15T18:38:21;10.70;99.90
20915;DHT22;10617;52.032;5.298;2023-04-15T18:42:23;10.80;99.90
20915;DHT22;10617;52.032;5.298;2023-04-15T18:46:24;10.80;99.50
20915;DHT22;10617;52.032;5.298;2023-04-15T18:50:26;10.80;99.60
20915;DHT22;10617;52.032;5.298;2023-04-15T18:54:27;10.80;99.60
20915;DHT22;10617;52.032;5.298;2023-04-15T18:58:29;10.70;99.90
20915;DHT22;10617;52.032;5.298;2023-04-15T19:02:51;10.60;99.90
20915;DHT22;10617;52.032;5.298;2023-04-15T19:06:53;10.60;99.90
20915;DHT22;10617;52.032;5.298;2023-04-15T19:10:54;10.60;99.40
20915;DHT22;10617;52.032;5.298;2023-04-15T19:14:56;10.50;99.90
20915;DHT22;10617;52.032;5.298;2023-04-15T19:18:58;10.50;99.90
20915;DHT22;10617;52.032;5.298;2023-04-15T19:22:59;10.50;99.90
20915;DHT22;10617;52.032;5.298;2023-04-15T19:27:01;10.40;99.90
20915;DHT22;10617;52.032;5.298;2023-04-15T19:31:03;10.40;99.90
20915;DHT22;10617;52.032;5.298;2023-04-15T19:35:05;10.30;99.90
20915;DHT22;10617;52.032;5.298;2023-04-15T19:39:11;10.30;99.90
20915;DHT22;10617;52.032;5.298;2023-04-15T19:43:13;10.20;99.90
20915;DHT22;10617;52.032;5.298;2023-04-15T19:47:15;10.20;99.90
20915;DHT22;10617;52.032;5.298;2023-04-15T19:51:17;10.20;99.90
20915;DHT22;10617;52.032;5.298;2023-04-15T19:55:19;10.10;99.90
20915;DHT22;10617;52.032;5.298;2023-04-15T19:59:21;10.00;99.90
20915;DHT22;10617;52.032;5.298;2023-04-15T20:03:22;10.00;99.90
20915;DHT22;10617;52.032;5.298;2023-04-15T20:07:24;10.00;99.90
20915;DHT22;10617;52.032;5.298;2023-04-15T20:11:26;10.00;99.90
20915;DHT22;10617;52.032;5.298;2023-04-15T20:15:49;10.00;99.90
20915;DHT22;10617;52.032;5.298;2023-04-15T20:19:51;9.90;99.90
20915;DHT22;10617;52.032;5.298;2023-04-15T20:23:53;9.90;99.90
20915;DHT22;10617;52.032;5.298;2023-04-15T20:27:54;9.90;99.90
20915;DHT22;10617;52.032;5.298;2023-04-15T20:31:57;9.90;99.90
20915;DHT22;10617;52.032;5.298;2023-04-15T20:35:59;9.90;99.90
20915;DHT22;10617;52.032;5.298;2023-04-15T20:40:00;9.90;99.90
20915;DHT22;10617;52.032;5.298;2023-04-15T20:44:02;9.90;99.90
20915;DHT22;10617;52.032;5.298;2023-04-15T20:48:04;9.90;99.90
20915;DHT22;10617;52.032;5.298;2023-04-15T20:52:06;10.00;99.90
20915;DHT22;10617;52.032;5.298;2023-04-15T20:56:08;9.90;99.90
20915;DHT22;10617;52.032;5.298;2023-04-15T21:00:10;10.00;99.90
20915;DHT22;10617;52.032;5.298;2023-04-15T21:04:11;9.90;99.90
20915;DHT22;10617;52.032;5.298;2023-04-15T21:08:13;9.90;99.90
20915;DHT22;10617;52.032;5.298;2023-04-15T21:12:15;9.80;99.90
20915;DHT22;10617;52.032;5.298;2023-04-15T21:16:16;9.80;99.90
20915;DHT22;10617;52.032;5.298;2023-04-15T21:20:18;9.70;99.90
20915;DHT22;10617;52.032;5.298;2023-04-15T21:24:20;9.70;99.90
20915;DHT22;10617;52.032;5.298;2023-04-15T21:28:22;9.70;99.90
20915;DHT22;10617;52.032;5.298;2023-04-15T21:32:23;9.70;99.90
20915;DHT22;10617;52.032;5.298;2023-04-15T21:36:25;9.80;99.90
20915;DHT22;10617;52.032;5.298;2023-04-15T21:55:37;9.70;99.90
20915;DHT22;10617;52.032;5.298;2023-04-15T21:59:39;9.60;99.90
20915;DHT22;10617;52.032;5.298;2023-04-15T22:03:40;9.60;99.90
20915;DHT22;10617;52.032;5.298;2023-04-15T22:07:42;9.50;99.90
20915;DHT22;10617;52.032;5.298;2023-04-15T22:11:44;9.50;99.90
20915;DHT22;10617;52.032;5.298;2023-04-15T22:15:47;9.50;99.90
20915;DHT22;10617;52.032;5.298;2023-04-15T22:19:51;9.50;99.90
20915;DHT22;10617;52.032;5.298;2023-04-15T22:39:22;9.60;99.90
20915;DHT22;10617;52.032;5.298;2023-04-15T22:43:24;9.60;99.90
20915;DHT22;10617;52.032;5.298;2023-04-15T22:47:27;9.60;99.90
20915;DHT22;10617;52.032;5.298;2023-04-15T22:51:29;9.60;99.90
20915;DHT22;10617;52.032;5.298;2023-04-15T22:55:31;9.50;99.90
20915;DHT22;10617;52.032;5.298;2023-04-15T22:59:33;9.50;99.90
20915;DHT22;10617;52.032;5.298;2023-04-15T23:03:35;9.50;99.90
20915;DHT22;10617;52.032;5.298;2023-04-15T23:07:39;9.50;99.90
20915;DHT22;10617;52.032;5.298;2023-04-15T23:11:41;9.50;99.90
20915;DHT22;10617;52.032;5.298;2023-04-15T23:15:43;9.50;99.90
20915;DHT22;10617;52.032;5.298;2023-04-15T23:19:44;9.50;99.90
20915;DHT22;10617;52.032;5.298;2023-04-15T23:33:53;9.40;99.90
20915;DHT22;10617;52.032;5.298;2023-04-15T23:37:55;9.50;99.90
20915;DHT22;10617;52.032;5.298;2023-04-15T23:41:56;9.50;99.90
20915;DHT22;10617;52.032;5.298;2023-04-15T23:45:58;9.40;99.90
20915;DHT22;10617;52.032;5.298;2023-04-15T23:50:00;9.50;99.90
20915;DHT22;10617;52.032;5.298;2023-04-15T23:54:01;9.50;99.90
20915;DHT22;10617;52.032;5.298;2023-04-15T23:58:03;9.50;99.90
